Main page
METAR-TAF:

METAR-TAF

Airports :

Salamanca Airport

Salamanca, Spain

latitude: 40-57N, longitude: 005-30W, elevation: 793 m

Current weather observation

The report was made 36 minutes ago, at 19:00 UTC
Wind 12 kt from the East/Northeast
Temperature 1°C
Humidity 64%
Pressure 1026 hPa
Visibility 10 km or more
no clouds below 1500 m and no cumulonimbus

METAR: LESA 211900Z AUTO 07012KT CAVOK 01/M05 Q1026

Time: 20:36 (19:36 UTC)

Forecast

The report was made 5 hours and 36 minutes ago, at 14:00 UTC
Forecast valid from 21 at 15 UTC to 22 at 15 UTC
Wind 8 kt from the East/Northeast
Visibility 10 km or more
no clouds below 1500 m and no cumulonimbus
Probability 30% :
Temporary
from 21 at 15 UTC to 21 at 19 UTC
Wind 15 kt from the East/Northeast with gusts up to 25 kt

TAF: LESA 211400Z 2115/2215 07008KT CAVOK TX07/2115Z TNM05/2208Z PROB30 TEMPO 2115/2119 07015G25KT

Weather observations and forecasts of more than 4000 airports (METAR and TAF reports).

The available stations are represented by yellow and red dots on the map.

Hover mouse over dot to see the name of the station.

Then click to see weather observations and forecasts.

To change the map : click on the green buttons with a black cross to zoom in, on the green button with a dash to zoom out, or on the green arrows for adjacent maps.


METAR-TAF: